Traveller — PHAM — position and weather

sailwx.info

Track history (hours):
 
Tides and Currents Weather Stations Pressure Air Temp Water Temp Dewpoint Dewpoint Depression Visibility Wind Speed Wind Dir Waves Ship Positions

Traveller

Last reported at 2015-Jul-28 17:33 UTC. Time now 2015-Jul-30 16:15 UTC.
Position S 23°55' W 046°22'.

Length 101 m; beam 20 m.

Type: Ship. MMSI: 246111000.

Date/timePositionNaut miles runAvg speedWind from/ knotsBaromVisibWave heightAir tempDewpointWater temp
2015-Jul-28 17:33S 23°55' W 046°22'5 5.4
2015-Jul-28 16:33S 23°60' W 046°20'7 6.5
2015-Jul-28 15:29S 24°07' W 046°19'0 0.0
2015-Jul-28 14:23S 24°07' W 046°19'0 0.1
2015-Jul-28 13:15S 24°07' W 046°19'0 0.0
2015-Jul-28 12:33S 24°07' W 046°19'0 0.0
2015-Jul-28 11:33S 24°07' W 046°19'0 0.0
2015-Jul-28 10:33S 24°07' W 046°19'0 0.0
2015-Jul-28 09:33S 24°07' W 046°19'0 0.0
2015-Jul-28 08:30S 24°07' W 046°19'0 0.0
2015-Jul-28 07:33S 24°07' W 046°19'0 0.0
2015-Jul-28 06:33S 24°07' W 046°19'0 0.0
2015-Jul-28 05:33S 24°07' W 046°19'0 0.0
2015-Jul-28 04:33S 24°07' W 046°19'0 0.1
2015-Jul-28 03:33S 24°07' W 046°19'0 0.0
2015-Jul-28 02:24S 24°07' W 046°19'0 0.0
2015-Jul-28 00:03S 24°07' W 046°19'0 0.0
2015-Jul-27 21:21S 24°07' W 046°19'0 0.0
2015-Jul-27 20:33S 24°07' W 046°19'0 0.0
2015-Jul-27 19:33S 24°07' W 046°19'0 0.0
2015-Jul-27 18:12S 24°07' W 046°19'0 0.0
2015-Jul-27 17:33S 24°07' W 046°19'0 0.0
2015-Jul-27 16:09S 24°07' W 046°19'0 0.0
2015-Jul-27 15:15S 24°07' W 046°19'0 0.0
2015-Jul-27 14:33S 24°07' W 046°19'0 0.0
2015-Jul-27 13:30S 24°07' W 046°19'0 0.0
2015-Jul-27 12:33S 24°07' W 046°19'0 0.0
2015-Jul-27 11:33S 24°07' W 046°19'0 0.0
2015-Jul-27 10:30S 24°07' W 046°19'0 0.0
2015-Jul-27 09:33S 24°07' W 046°19'0 0.0
2015-Jul-27 08:27S 24°07' W 046°19'0 0.0
2015-Jul-27 07:33S 24°07' W 046°19'0 0.0
2015-Jul-27 06:33S 24°07' W 046°19'0 0.0
2015-Jul-27 05:33S 24°07' W 046°19'0 0.0
2015-Jul-27 04:33S 24°07' W 046°19'0 0.0
2015-Jul-27 03:27S 24°07' W 046°19'0 0.0
2015-Jul-27 01:33S 24°07' W 046°19'0 0.0
2015-Jul-27 00:33S 24°07' W 046°19'0 0.0
2015-Jul-26 23:33S 24°07' W 046°19'0 0.0
2015-Jul-26 22:33S 24°07' W 046°19'0 0.0
2015-Jul-26 21:30S 24°07' W 046°19'0 0.0
2015-Jul-26 20:33S 24°07' W 046°19'0 0.0
2015-Jul-26 19:27S 24°07' W 046°19'0 0.0
2015-Jul-26 18:21S 24°07' W 046°19'0 0.0
2015-Jul-26 17:33S 24°07' W 046°19'0 0.0
2015-Jul-26 15:33S 24°07' W 046°19'1 2.3
2015-Jul-26 15:00S 24°06' W 046°18'1 2.4 999 / 41018.9 5.4 23.015.2
2015-Jul-26 14:27S 24°07' W 046°19'0 0.0
2015-Jul-26 12:33S 24°07' W 046°19'0 0.0
2015-Jul-26 11:30S 24°07' W 046°19'0 0.0
2015-Jul-26 10:33S 24°07' W 046°19'6 6.1
2015-Jul-26 09:33S 24°05' W 046°13'1410.2
2015-Jul-26 08:09S 24°10' W 045°58'16 7.4
2015-Jul-26 06:00S 24°24' W 046°06'4013.4 180 / 121017.910.8 0.520.017.1
2015-Jul-26 03:00S 24°12' W 045°24'51042.5 250 / 151017.9 5.4 19.014.2
2015-Jul-25 15:00S 32°18' W 042°30'63270.2 040 / 31016.9 5.4 22.019.8
2015-Jul-25 06:00S 21°54' W 040°36'   020 / 111018.910.8 1.023.020.1
2015-Jul-19 18:00S 20°18' W 040°06'0 0.0 090 / 61021.610.8 0.525.022.3
2015-Jul-19 15:00S 20°18' W 040°06'4 9.4 999 / 31023.8 5.4 23.218.4
2015-Jul-19 14:33S 20°19' W 040°10'190 9.3
2015-Jul-18 18:00S 17°54' W 038°00'   090 / 161021.310.8 1.026.023.4
Track history (hours):
 
Tides and Currents Weather Stations Pressure Air Temp Water Temp Dewpoint Dewpoint Depression Visibility Wind Speed Wind Dir Waves Ship Positions

Traveller

Last reported at 2015-Jul-28 17:33 UTC. Time now 2015-Jul-30 16:15 UTC.
Position S 23°55' W 046°22'.

Length 101 m; beam 20 m.

Type: Ship. MMSI: 246111000.

Date/timePositionNaut miles runAvg speedWind from/ knotsBaromVisibWave heightAir tempDewpointWater temp
2015-Jul-28 17:33S 23°55' W 046°22'5 5.4
2015-Jul-28 16:33S 23°60' W 046°20'7 6.5
2015-Jul-28 15:29S 24°07' W 046°19'0 0.0
2015-Jul-28 14:23S 24°07' W 046°19'0 0.1
2015-Jul-28 13:15S 24°07' W 046°19'0 0.0
2015-Jul-28 12:33S 24°07' W 046°19'0 0.0
2015-Jul-28 11:33S 24°07' W 046°19'0 0.0
2015-Jul-28 10:33S 24°07' W 046°19'0 0.0
2015-Jul-28 09:33S 24°07' W 046°19'0 0.0
2015-Jul-28 08:30S 24°07' W 046°19'0 0.0
2015-Jul-28 07:33S 24°07' W 046°19'0 0.0
2015-Jul-28 06:33S 24°07' W 046°19'0 0.0
2015-Jul-28 05:33S 24°07' W 046°19'0 0.0
2015-Jul-28 04:33S 24°07' W 046°19'0 0.1
2015-Jul-28 03:33S 24°07' W 046°19'0 0.0
2015-Jul-28 02:24S 24°07' W 046°19'0 0.0
2015-Jul-28 00:03S 24°07' W 046°19'0 0.0
2015-Jul-27 21:21S 24°07' W 046°19'0 0.0
2015-Jul-27 20:33S 24°07' W 046°19'0 0.0
2015-Jul-27 19:33S 24°07' W 046°19'0 0.0
2015-Jul-27 18:12S 24°07' W 046°19'0 0.0
2015-Jul-27 17:33S 24°07' W 046°19'0 0.0
2015-Jul-27 16:09S 24°07' W 046°19'0 0.0
2015-Jul-27 15:15S 24°07' W 046°19'0 0.0
2015-Jul-27 14:33S 24°07' W 046°19'0 0.0
2015-Jul-27 13:30S 24°07' W 046°19'0 0.0
2015-Jul-27 12:33S 24°07' W 046°19'0 0.0
2015-Jul-27 11:33S 24°07' W 046°19'0 0.0
2015-Jul-27 10:30S 24°07' W 046°19'0 0.0
2015-Jul-27 09:33S 24°07' W 046°19'0 0.0
2015-Jul-27 08:27S 24°07' W 046°19'0 0.0
2015-Jul-27 07:33S 24°07' W 046°19'0 0.0
2015-Jul-27 06:33S 24°07' W 046°19'0 0.0
2015-Jul-27 05:33S 24°07' W 046°19'0 0.0
2015-Jul-27 04:33S 24°07' W 046°19'0 0.0
2015-Jul-27 03:27S 24°07' W 046°19'0 0.0
2015-Jul-27 01:33S 24°07' W 046°19'0 0.0
2015-Jul-27 00:33S 24°07' W 046°19'0 0.0
2015-Jul-26 23:33S 24°07' W 046°19'0 0.0
2015-Jul-26 22:33S 24°07' W 046°19'0 0.0
2015-Jul-26 21:30S 24°07' W 046°19'0 0.0
2015-Jul-26 20:33S 24°07' W 046°19'0 0.0
2015-Jul-26 19:27S 24°07' W 046°19'0 0.0
2015-Jul-26 18:21S 24°07' W 046°19'0 0.0
2015-Jul-26 17:33S 24°07' W 046°19'0 0.0
2015-Jul-26 15:33S 24°07' W 046°19'1 2.3
2015-Jul-26 15:00S 24°06' W 046°18'1 2.4 999 / 41018.9 5.4 23.015.2
2015-Jul-26 14:27S 24°07' W 046°19'0 0.0
2015-Jul-26 12:33S 24°07' W 046°19'0 0.0
2015-Jul-26 11:30S 24°07' W 046°19'0 0.0
2015-Jul-26 10:33S 24°07' W 046°19'6 6.1
2015-Jul-26 09:33S 24°05' W 046°13'1410.2
2015-Jul-26 08:09S 24°10' W 045°58'16 7.4
2015-Jul-26 06:00S 24°24' W 046°06'4013.4 180 / 121017.910.8 0.520.017.1
2015-Jul-26 03:00S 24°12' W 045°24'51042.5 250 / 151017.9 5.4 19.014.2
2015-Jul-25 15:00S 32°18' W 042°30'63270.2 040 / 31016.9 5.4 22.019.8
2015-Jul-25 06:00S 21°54' W 040°36'   020 / 111018.910.8 1.023.020.1
2015-Jul-19 18:00S 20°18' W 040°06'0 0.0 090 / 61021.610.8 0.525.022.3
2015-Jul-19 15:00S 20°18' W 040°06'4 9.4 999 / 31023.8 5.4 23.218.4
2015-Jul-19 14:33S 20°19' W 040°10'190 9.3
2015-Jul-18 18:00S 17°54' W 038°00'   090 / 161021.310.8 1.026.023.4

Dump ship's entire track history